Time;durP1;ratioP1;P1;durP2;ratioP2;P2;SDS_P1;SDS_P2;PMS_P1;PMS_P2;Temp;Humidity;BMP_temperature;BMP_pressure;BME280_temperature;BME280_humidity;BME280_pressure;Samples;Min_cycle;Max_cycle;Signal;HPM_P1;HPM_P2
2021/07/29 00:00:36;;;;;;;21.25;18.50;;;24.80;99.90;;;;;;5096223;28;20031;-85
2021/07/29 00:03:03;;;;;;;21.42;19.13;;;24.70;99.90;;;;;;5077739;28;20073;-85
2021/07/29 00:05:30;;;;;;;20.38;17.77;;;24.70;99.90;;;;;;5077293;28;20139;-84
2021/07/29 00:07:56;;;;;;;22.00;18.38;;;24.70;99.90;;;;;;5077629;28;20077;-84
2021/07/29 00:10:23;;;;;;;19.92;17.88;;;24.70;99.90;;;;;;5095690;28;20381;-85
2021/07/29 00:12:49;;;;;;;19.75;17.67;;;24.70;99.90;;;;;;5077590;28;20027;-85
2021/07/29 00:15:16;;;;;;;22.45;17.98;;;24.70;99.90;;;;;;5077482;28;20515;-85
2021/07/29 00:20:29;;;;;;;18.45;16.25;;;24.60;99.90;;;;;;5024432;28;20033;-84
2021/07/29 00:22:59;;;;;;;18.45;16.70;;;24.60;99.90;;;;;;5075230;28;20023;-85
2021/07/29 00:25:26;;;;;;;20.02;16.35;;;24.60;99.90;;;;;;5057159;28;20379;-85
2021/07/29 00:27:52;;;;;;;20.73;16.75;;;24.60;99.90;;;;;;5057129;28;20020;-85
2021/07/29 00:30:19;;;;;;;19.58;16.52;;;24.60;99.90;;;;;;5075059;28;20117;-85
2021/07/29 00:32:46;;;;;;;17.83;15.32;;;24.60;99.90;;;;;;5056995;28;20047;-85
2021/07/29 00:35:14;;;;;;;16.60;14.80;;;24.60;99.90;;;;;;5074980;28;20175;-85
2021/07/29 00:37:49;;;;;;;18.60;15.55;;;24.60;99.90;;;;;;5056953;28;20489;-85
2021/07/29 00:40:16;;;;;;;16.48;14.63;;;24.60;99.90;;;;;;5075076;28;20036;-85
2021/07/29 00:42:42;;;;;;;16.15;14.52;;;24.60;99.90;;;;;;5074825;28;20025;-84
2021/07/29 00:45:08;;;;;;;17.48;15.65;;;24.50;99.90;;;;;;5073443;28;20055;-85
2021/07/29 00:47:35;;;;;;;18.70;15.52;;;24.50;99.90;;;;;;5056860;28;20046;-84
2021/07/29 00:50:02;;;;;;;17.27;14.98;;;24.50;99.90;;;;;;5074680;28;20016;-85
2021/07/29 00:52:28;;;;;;;16.90;14.40;;;24.50;99.90;;;;;;5056669;28;20020;-85
2021/07/29 00:54:54;;;;;;;17.45;15.63;;;24.50;99.90;;;;;;5073269;28;20425;-85
2021/07/29 00:57:22;;;;;;;19.58;15.40;;;24.50;99.90;;;;;;5073260;28;20074;-85
2021/07/29 00:59:49;;;;;;;17.50;14.70;;;24.50;99.90;;;;;;5073164;28;20021;-84
2021/07/29 01:02:15;;;;;;;17.52;15.23;;;24.50;99.90;;;;;;5056573;28;20111;-85
2021/07/29 01:04:41;;;;;;;19.58;15.25;;;24.40;99.90;;;;;;5056090;28;20139;-85
2021/07/29 01:07:07;;;;;;;17.30;15.40;;;24.50;99.90;;;;;;5074378;28;20378;-85
2021/07/29 01:09:32;;;;;;;15.90;14.25;;;24.40;99.90;;;;;;5056480;28;20125;-85
2021/07/29 01:11:58;;;;;;;16.75;14.68;;;24.40;99.90;;;;;;5088218;28;20058;-85
2021/07/29 01:14:24;;;;;;;19.73;15.15;;;24.40;99.90;;;;;;5075922;28;20025;-85
2021/07/29 01:16:50;;;;;;;16.85;14.77;;;24.30;99.90;;;;;;5094750;28;20021;-85
2021/07/29 01:19:20;;;;;;;20.00;14.90;;;24.40;99.90;;;;;;5076249;28;20035;-84
2021/07/29 01:21:45;;;;;;;16.58;14.88;;;24.30;99.90;;;;;;5094673;28;20016;-84
2021/07/29 01:24:11;;;;;;;17.45;14.25;;;24.30;99.90;;;;;;5093989;28;20539;-85
2021/07/29 01:26:36;;;;;;;16.30;14.55;;;24.30;99.90;;;;;;5076040;28;20093;-85
2021/07/29 01:29:02;;;;;;;17.23;15.00;;;24.30;99.90;;;;;;5094261;28;20016;-85
2021/07/29 01:31:28;;;;;;;16.20;14.50;;;24.30;99.90;;;;;;5094148;28;20053;-85
2021/07/29 01:33:55;;;;;;;15.70;14.07;;;24.30;99.90;;;;;;5076093;28;20020;-85
2021/07/29 01:36:21;;;;;;;16.73;14.82;;;24.30;99.90;;;;;;5094070;28;20023;-85
2021/07/29 01:38:47;;;;;;;16.65;14.85;;;24.30;99.90;;;;;;5094100;28;20218;-85
2021/07/29 01:41:12;;;;;;;18.90;14.95;;;24.30;99.90;;;;;;5075897;28;20485;-85
2021/07/29 01:43:39;;;;;;;17.48;14.57;;;24.20;99.90;;;;;;5075950;28;20028;-85
2021/07/29 01:46:04;;;;;;;16.10;14.40;;;24.20;99.90;;;;;;5075899;28;20034;-85
2021/07/29 01:48:31;;;;;;;19.08;14.50;;;24.20;99.90;;;;;;5093929;28;20475;-85
2021/07/29 01:50:57;;;;;;;16.20;14.35;;;24.10;99.90;;;;;;5075722;28;20514;-85
2021/07/29 01:53:23;;;;;;;16.23;14.55;;;24.10;99.90;;;;;;5075872;28;20035;-85
2021/07/29 01:55:49;;;;;;;16.40;14.65;;;24.10;99.90;;;;;;5093790;28;20035;-85
2021/07/29 01:58:16;;;;;;;17.52;15.32;;;24.10;99.90;;;;;;5093791;28;20489;-84
2021/07/29 02:00:44;;;;;;;17.10;15.25;;;24.00;99.90;;;;;;5075713;28;20057;-84
2021/07/29 02:03:10;;;;;;;17.77;15.88;;;24.00;99.90;;;;;;5075662;28;20201;-84
2021/07/29 02:05:36;;;;;;;17.00;14.90;;;24.10;99.90;;;;;;5075320;28;20188;-84
2021/07/29 02:08:02;;;;;;;69.50;18.48;;;24.00;99.90;;;;;;5075632;28;20111;-84
2021/07/29 02:10:28;;;;;;;18.17;15.88;;;24.10;99.90;;;;;;5093528;28;20027;-84
2021/07/29 02:12:55;;;;;;;17.70;15.77;;;24.00;99.90;;;;;;5093736;28;20107;-84
2021/07/29 02:15:21;;;;;;;18.90;15.35;;;24.10;99.90;;;;;;5076091;28;20085;-84
2021/07/29 02:17:47;;;;;;;16.98;15.00;;;24.10;99.90;;;;;;5093584;28;20040;-84
2021/07/29 02:20:14;;;;;;;18.83;14.98;;;24.10;99.90;;;;;;5093677;28;20027;-84
2021/07/29 02:22:40;;;;;;;16.98;15.27;;;24.10;99.90;;;;;;5075500;28;20554;-84
2021/07/29 02:25:07;;;;;;;22.65;15.93;;;24.10;99.90;;;;;;5075428;28;20036;-84
2021/07/29 02:27:33;;;;;;;18.45;15.25;;;24.10;99.90;;;;;;5096408;28;20025;-84
2021/07/29 02:29:59;;;;;;;20.42;15.13;;;24.10;99.90;;;;;;5097548;28;20074;-84
2021/07/29 02:32:25;;;;;;;16.45;14.48;;;24.10;99.90;;;;;;5060744;28;20024;-83
2021/07/29 02:34:54;;;;;;;19.38;15.43;;;24.00;99.90;;;;;;5076972;28;20039;-84
2021/07/29 02:37:20;;;;;;;16.63;14.83;;;24.00;99.90;;;;;;5059325;28;20025;-85
2021/07/29 02:39:46;;;;;;;19.30;17.08;;;24.00;99.90;;;;;;5077165;28;20372;-84
2021/07/29 02:42:12;;;;;;;18.63;15.90;;;24.00;99.90;;;;;;5059222;28;20029;-82
2021/07/29 02:44:39;;;;;;;17.48;15.68;;;23.90;99.90;;;;;;5059005;28;20166;-82
2021/07/29 02:47:04;;;;;;;18.02;15.38;;;23.90;99.90;;;;;;5077076;28;20033;-83
2021/07/29 02:49:30;;;;;;;18.42;15.07;;;23.90;99.90;;;;;;5059091;28;20377;-83
2021/07/29 02:51:56;;;;;;;17.30;15.40;;;24.00;99.90;;;;;;5058996;28;20017;-83
2021/07/29 02:54:21;;;;;;;17.85;15.25;;;24.00;99.90;;;;;;5059060;28;20029;-83
2021/07/29 02:56:47;;;;;;;17.73;14.93;;;24.00;99.90;;;;;;5077172;28;20046;-83
2021/07/29 02:59:13;;;;;;;20.58;15.52;;;24.00;99.90;;;;;;5082730;28;20012;-83
2021/07/29 03:01:38;;;;;;;16.98;14.82;;;24.00;99.90;;;;;;5078831;28;20060;-83
2021/07/29 03:04:04;;;;;;;16.33;14.07;;;24.10;99.90;;;;;;5096969;28;20046;-83
2021/07/29 03:06:30;;;;;;;16.58;14.90;;;24.10;99.90;;;;;;5096808;28;20048;-83
2021/07/29 03:08:57;;;;;;;16.83;15.02;;;24.10;99.90;;;;;;5096935;28;20027;-83
2021/07/29 03:11:23;;;;;;;16.35;14.75;;;24.10;99.90;;;;;;5078726;28;20092;-83
2021/07/29 03:13:49;;;;;;;18.00;15.48;;;24.10;99.90;;;;;;5078424;28;20484;-83
2021/07/29 03:16:14;;;;;;;20.23;16.10;;;24.20;99.90;;;;;;5097034;28;20028;-83
2021/07/29 03:18:40;;;;;;;19.25;14.90;;;24.20;99.90;;;;;;5096745;28;20124;-83
2021/07/29 03:21:07;;;;;;;18.33;15.90;;;24.20;99.90;;;;;;5096441;28;20169;-83
2021/07/29 11:45:05;;;;;;;63.38;27.55;;;30.80;71.80;;;;;;5071998;28;20429;-85
2021/07/29 11:47:37;;;;;;;10.27;4.68;;;31.10;73.20;;;;;;5071414;28;20052;-85
2021/07/29 11:50:03;;;;;;;9.82;5.43;;;31.70;61.50;;;;;;5071317;28;20023;-85
2021/07/29 11:52:29;;;;;;;7.32;4.47;;;31.90;62.00;;;;;;5071072;28;20067;-84
2021/07/29 11:55:14;;;;;;;14.43;4.72;;;32.10;60.90;;;;;;5071107;28;20422;-82
2021/07/29 11:57:40;;;;;;;15.13;7.20;;;32.30;60.70;;;;;;5070781;28;20020;-82
2021/07/29 12:00:07;;;;;;;9.00;4.43;;;32.40;62.30;;;;;;5070585;28;20074;-81
2021/07/29 12:02:33;;;;;;;11.70;5.13;;;32.50;63.70;;;;;;5070615;28;20059;-82
2021/07/29 12:04:59;;;;;;;10.85;4.57;;;32.60;63.90;;;;;;5070632;28;20056;-85
2021/07/29 12:07:24;;;;;;;10.85;4.70;;;32.90;61.20;;;;;;5069225;28;20116;-83
2021/07/29 12:09:50;;;;;;;11.15;4.95;;;33.10;62.00;;;;;;5070847;28;20017;-84
2021/07/29 12:12:17;;;;;;;7.57;4.82;;;33.40;60.70;;;;;;5071056;28;20046;-84
2021/07/29 12:14:46;;;;;;;8.85;4.30;;;33.40;61.10;;;;;;5070603;28;20473;-84
2021/07/29 12:17:22;;;;;;;10.07;4.38;;;33.70;60.40;;;;;;5069373;28;20391;-80
2021/07/29 12:19:58;;;;;;;12.27;4.85;;;34.00;59.40;;;;;;5069465;28;20120;-83
2021/07/29 12:22:26;;;;;;;17.27;4.70;;;34.10;59.50;;;;;;5070682;28;20024;-84
2021/07/29 12:24:53;;;;;;;11.95;4.63;;;34.20;60.30;;;;;;5070650;28;20032;-84
2021/07/29 12:27:19;;;;;;;9.50;5.22;;;34.60;58.60;;;;;;5076752;28;20066;-84
2021/07/29 12:29:46;;;;;;;7.57;4.85;;;35.20;55.20;;;;;;5069802;28;20068;-85
2021/07/29 12:32:19;;;;;;;10.98;4.60;;;35.30;56.90;;;;;;5070633;28;20062;-81
2021/07/29 12:34:45;;;;;;;11.52;5.45;;;35.60;55.40;;;;;;5070213;28;20025;-79
2021/07/29 12:37:11;;;;;;;9.57;5.25;;;35.80;55.20;;;;;;5070180;28;20060;-81
2021/07/29 12:39:36;;;;;;;8.52;4.82;;;36.00;54.70;;;;;;5070404;28;20045;-81
2021/07/29 12:42:23;;;;;;;11.43;5.00;;;36.10;55.20;;;;;;5070414;28;20374;-80
2021/07/29 12:44:56;;;;;;;11.32;5.05;;;36.40;54.80;;;;;;5069571;28;20402;-81
2021/07/29 12:47:22;;;;;;;10.25;4.63;;;36.40;55.30;;;;;;5069907;28;20024;-80
2021/07/29 12:49:47;;;;;;;10.50;4.68;;;36.50;55.80;;;;;;5070030;28;20086;-84
2021/07/29 12:52:22;;;;;;;9.05;4.60;;;36.80;54.20;;;;;;5068557;28;20044;-79
2021/07/29 12:55:08;;;;;;;12.68;4.80;;;36.90;53.90;;;;;;5065682;28;20021;-80
2021/07/29 12:57:53;;;;;;;9.55;4.50;;;37.00;54.00;;;;;;5056963;28;20576;-82
2021/07/29 13:00:23;;;;;;;8.70;4.30;;;36.80;53.70;;;;;;5056489;28;20029;-79
2021/07/29 13:02:49;;;;;;;7.43;4.10;;;36.60;54.40;;;;;;5056354;28;20167;-82
2021/07/29 13:05:15;;;;;;;9.88;4.70;;;37.10;52.60;;;;;;5056509;28;20021;-82
2021/07/29 17:39:41;;;;;;;32.03;10.60;;;27.70;95.30;;;;;;5111684;27;20754;-88
2021/07/29 17:42:07;;;;;;;65.57;48.17;;;27.50;93.00;;;;;;5093562;28;20077;-86
2021/07/29 17:44:35;;;;;;;96.93;74.28;;;27.60;93.20;;;;;;5112046;28;20710;-87
2021/07/29 17:47:02;;;;;;;66.80;51.80;;;27.70;92.90;;;;;;5111670;28;20065;-93
2021/07/29 17:49:28;;;;;;;37.83;23.50;;;27.90;93.00;;;;;;5112017;28;20071;-91
2021/07/29 17:51:54;;;;;;;26.00;18.83;;;27.90;92.80;;;;;;5111946;28;20089;-88
2021/07/29 17:54:20;;;;;;;78.93;54.67;;;28.00;92.90;;;;;;5093384;28;20469;-89
2021/07/29 17:56:48;;;;;;;50.47;36.60;;;28.10;92.80;;;;;;5111294;28;20032;-88
2021/07/29 17:59:14;;;;;;;35.42;24.20;;;28.20;92.70;;;;;;5111224;28;20431;-84
2021/07/29 18:01:40;;;;;;;27.85;17.58;;;28.30;92.70;;;;;;5111039;28;20016;-85
2021/07/29 18:04:05;;;;;;;50.72;34.30;;;28.30;92.40;;;;;;5111076;28;20020;-90
2021/07/29 18:06:31;;;;;;;44.20;32.55;;;28.30;92.30;;;;;;5093412;28;20028;-88
2021/07/29 18:08:57;;;;;;;37.83;25.17;;;28.40;92.10;;;;;;5111015;28;20382;-87
2021/07/29 18:11:23;;;;;;;28.92;17.75;;;28.40;92.10;;;;;;5110983;28;20444;-87
2021/07/29 18:13:49;;;;;;;28.30;13.88;;;28.40;92.20;;;;;;5110808;28;20063;-87
2021/07/29 18:16:18;;;;;;;28.08;13.48;;;28.50;92.30;;;;;;5110880;28;20024;-87
2021/07/29 18:18:44;;;;;;;17.92;12.13;;;28.50;92.20;;;;;;5110602;28;20059;-83
2021/07/29 18:21:10;;;;;;;54.03;40.00;;;28.50;92.30;;;;;;5111124;28;20062;-87
2021/07/29 18:23:36;;;;;;;45.22;36.60;;;28.50;92.20;;;;;;5092616;28;20038;-86
2021/07/29 18:26:02;;;;;;;25.55;16.80;;;28.50;92.20;;;;;;5110473;28;20052;-85
2021/07/29 18:28:27;;;;;;;21.65;12.82;;;28.50;92.50;;;;;;5110989;28;20023;-88
2021/07/29 18:30:53;;;;;;;29.23;12.15;;;28.50;92.30;;;;;;5092984;28;20023;-88
2021/07/29 18:33:19;;;;;;;24.73;12.95;;;28.50;92.20;;;;;;5092863;28;20023;-90
2021/07/29 18:35:44;;;;;;;29.15;12.75;;;28.40;92.00;;;;;;5093357;28;20389;-91
2021/07/29 18:38:11;;;;;;;26.38;12.95;;;28.40;91.80;;;;;;5093514;28;20040;-90
2021/07/29 18:40:40;;;;;;;24.08;12.60;;;28.30;91.80;;;;;;5092968;28;20030;-90
2021/07/29 18:43:06;;;;;;;24.95;13.15;;;28.30;91.90;;;;;;5092954;28;20028;-91
2021/07/29 18:45:31;;;;;;;26.80;13.27;;;28.30;92.10;;;;;;5093309;28;20032;-89
2021/07/29 18:47:58;;;;;;;19.63;11.98;;;28.30;92.50;;;;;;5092183;28;20031;-87
2021/07/29 18:50:25;;;;;;;23.10;13.10;;;28.30;92.40;;;;;;5082062;28;20031;-86
2021/07/29 18:52:52;;;;;;;22.63;12.32;;;28.30;92.30;;;;;;5078647;28;20444;-86
2021/07/29 18:55:17;;;;;;;23.15;13.07;;;28.20;92.10;;;;;;5078835;28;20032;-88
2021/07/29 18:57:43;;;;;;;20.15;13.05;;;28.20;92.60;;;;;;5096334;28;20040;-87
2021/07/29 19:00:09;;;;;;;27.02;12.25;;;28.10;92.60;;;;;;5096662;28;20017;-88
2021/07/29 19:02:35;;;;;;;23.05;12.70;;;28.00;92.70;;;;;;5096629;28;20032;-89
2021/07/29 19:05:01;;;;;;;28.58;13.70;;;28.00;93.10;;;;;;5096705;28;20413;-88
2021/07/29 19:07:27;;;;;;;25.13;14.20;;;28.00;93.20;;;;;;5096678;28;20017;-88
2021/07/29 19:09:54;;;;;;;24.42;14.30;;;27.90;93.10;;;;;;5096458;28;20023;-90
2021/07/29 19:12:19;;;;;;;26.52;14.38;;;27.90;93.50;;;;;;5096398;28;20096;-87
2021/07/29 19:14:47;;;;;;;36.85;21.90;;;27.90;93.40;;;;;;5096288;28;20526;-89
2021/07/29 19:17:13;;;;;;;34.22;22.45;;;27.90;93.50;;;;;;5096523;28;20478;-90
2021/07/29 19:19:44;;;;;;;25.98;16.63;;;27.90;93.60;;;;;;5078563;28;20504;-87
2021/07/29 19:22:10;;;;;;;72.13;44.08;;;28.00;93.30;;;;;;5078473;28;20036;-85
2021/07/29 19:24:36;;;;;;;37.08;23.50;;;27.90;93.20;;;;;;5096229;28;20121;-86
2021/07/29 19:27:02;;;;;;;32.53;18.85;;;28.00;93.30;;;;;;5096093;28;20021;-87
2021/07/29 19:29:28;;;;;;;37.92;24.40;;;28.00;93.60;;;;;;5095866;28;20027;-85
2021/07/29 19:31:53;;;;;;;17.45;11.98;;;28.10;92.50;;;;;;5077610;28;20034;-88
2021/07/29 19:34:19;;;;;;;30.60;15.02;;;28.20;91.10;;;;;;5077990;28;20388;-82
2021/07/29 19:36:44;;;;;;;24.67;13.73;;;28.30;90.30;;;;;;5095618;28;20024;-88
2021/07/29 19:39:10;;;;;;;19.33;9.50;;;28.30;89.50;;;;;;5095528;28;20510;-84
2021/07/29 19:41:36;;;;;;;16.13;9.95;;;28.40;90.10;;;;;;5095809;28;20093;-88
2021/07/29 19:44:02;;;;;;;16.05;10.45;;;28.50;90.30;;;;;;5077640;28;20016;-80
2021/07/29 19:46:28;;;;;;;16.92;9.45;;;28.40;90.60;;;;;;5095502;28;20023;-79
2021/07/29 19:48:53;;;;;;;16.00;8.75;;;28.30;91.30;;;;;;5077573;28;20074;-90
2021/07/29 19:51:20;;;;;;;11.95;6.75;;;28.10;91.40;;;;;;5095503;28;20076;-81
2021/07/29 19:53:45;;;;;;;12.65;7.47;;;28.10;91.60;;;;;;5095280;28;20031;-77
2021/07/29 19:56:11;;;;;;;15.65;6.82;;;27.90;91.80;;;;;;5095447;28;20411;-74
2021/07/29 19:58:37;;;;;;;12.20;6.10;;;27.80;91.20;;;;;;5077121;28;20032;-76
2021/07/29 20:01:03;;;;;;;9.73;5.85;;;27.70;90.60;;;;;;5074196;28;20153;-74
2021/07/29 20:03:32;;;;;;;9.65;5.40;;;27.60;90.10;;;;;;5074789;28;20681;-76
2021/07/29 20:06:00;;;;;;;7.53;5.07;;;27.50;89.40;;;;;;5074915;28;20035;-75
2021/07/29 20:08:26;;;;;;;10.63;5.00;;;27.50;88.10;;;;;;5075032;28;20048;-73
2021/07/29 20:10:52;;;;;;;6.97;5.13;;;27.40;87.90;;;;;;5074933;28;20025;-77
2021/07/29 20:13:17;;;;;;;7.18;4.80;;;27.40;87.00;;;;;;5074963;28;20032;-78
2021/07/29 20:15:43;;;;;;;8.60;5.03;;;27.30;86.40;;;;;;5076353;28;20482;-76
2021/07/29 20:18:09;;;;;;;6.20;4.03;;;27.20;85.30;;;;;;5092349;28;20032;-74
2021/07/29 20:20:35;;;;;;;8.30;4.60;;;27.20;85.60;;;;;;5094797;28;20443;-78
2021/07/29 20:23:01;;;;;;;6.00;4.07;;;27.10;86.10;;;;;;5081130;28;20024;-79
2021/07/29 20:25:37;;;;;;;9.00;4.13;;;27.00;86.90;;;;;;5085111;28;20035;-77
2021/07/29 20:28:03;;;;;;;6.35;3.95;;;26.90;87.30;;;;;;5088614;28;20028;-74
2021/07/29 20:30:28;;;;;;;8.10;4.75;;;26.90;87.90;;;;;;5092147;28;20035;-73
2021/07/29 20:32:54;;;;;;;8.20;4.43;;;26.90;87.60;;;;;;5092861;28;20035;-74
2021/07/29 20:35:20;;;;;;;5.68;4.57;;;26.90;87.90;;;;;;5094678;28;20052;-75
2021/07/29 20:37:47;;;;;;;5.50;4.68;;;26.90;88.10;;;;;;5094254;28;20087;-75
2021/07/29 20:40:13;;;;;;;7.30;4.50;;;26.80;88.30;;;;;;5094406;28;20093;-76
2021/07/29 20:42:38;;;;;;;7.10;4.55;;;26.80;88.70;;;;;;5093377;28;20466;-76
2021/07/29 20:45:07;;;;;;;6.95;4.70;;;26.70;89.30;;;;;;5094244;28;20024;-75
2021/07/29 20:47:33;;;;;;;5.90;4.30;;;26.70;89.10;;;;;;5094399;28;20408;-75
2021/07/29 20:49:58;;;;;;;6.13;3.90;;;26.70;89.20;;;;;;5091660;28;20020;-75
2021/07/29 20:52:24;;;;;;;6.72;4.18;;;26.60;89.50;;;;;;5094396;28;20073;-74
2021/07/29 20:54:49;;;;;;;5.55;4.47;;;26.60;89.30;;;;;;5094272;28;20020;-76
2021/07/29 20:57:15;;;;;;;6.00;4.32;;;26.60;89.10;;;;;;5094165;28;20012;-76
2021/07/29 20:59:41;;;;;;;5.78;4.00;;;26.60;89.30;;;;;;5091115;28;20024;-76
2021/07/29 21:02:08;;;;;;;6.95;5.00;;;26.50;89.60;;;;;;5090463;28;20039;-76
2021/07/29 21:04:34;;;;;;;7.30;4.63;;;26.50;89.70;;;;;;5094005;28;20024;-73
2021/07/29 21:07:00;;;;;;;7.03;4.20;;;26.50;89.80;;;;;;5094038;28;20023;-73
2021/07/29 21:09:25;;;;;;;13.30;7.00;;;26.50;89.90;;;;;;5094428;28;20187;-77
2021/07/29 21:11:51;;;;;;;12.00;6.68;;;26.50;90.00;;;;;;5094159;28;20040;-77
2021/07/29 21:14:16;;;;;;;14.07;6.10;;;26.40;90.40;;;;;;5093729;28;20052;-75
2021/07/29 21:16:42;;;;;;;8.98;5.38;;;26.40;90.30;;;;;;5094091;28;20099;-77
2021/07/29 21:19:11;;;;;;;6.63;4.82;;;26.40;90.30;;;;;;5093985;28;20069;-75
2021/07/29 21:21:38;;;;;;;8.48;5.60;;;26.40;89.70;;;;;;5093991;28;20454;-74
2021/07/29 21:24:05;;;;;;;8.35;5.05;;;26.30;90.10;;;;;;5093754;28;20020;-74
2021/07/29 21:26:31;;;;;;;8.98;5.53;;;26.20;90.20;;;;;;5094043;28;20020;-80
2021/07/29 21:28:57;;;;;;;7.53;5.45;;;26.20;90.10;;;;;;5090335;28;20020;-74
2021/07/29 21:31:22;;;;;;;6.40;4.97;;;26.30;90.00;;;;;;5089947;28;20030;-75
2021/07/29 21:33:48;;;;;;;12.82;5.10;;;26.20;90.20;;;;;;5093710;28;20020;-74
2021/07/29 21:36:14;;;;;;;9.00;5.63;;;26.20;90.80;;;;;;5088552;28;20032;-77
2021/07/29 21:38:40;;;;;;;11.38;6.40;;;26.10;93.10;;;;;;5093493;28;20044;-77
2021/07/29 21:41:05;;;;;;;11.25;7.13;;;26.00;95.20;;;;;;5093617;28;20012;-78
2021/07/29 21:43:31;;;;;;;16.65;6.85;;;25.60;96.80;;;;;;5093726;28;20347;-77
2021/07/29 21:45:57;;;;;;;18.15;6.72;;;25.10;98.10;;;;;;5081441;28;20355;-80
2021/07/29 21:48:22;;;;;;;8.57;5.65;;;25.00;98.60;;;;;;5084067;28;20028;-90
2021/07/29 21:50:48;;;;;;;23.67;6.28;;;24.80;98.70;;;;;;5093817;28;20035;-84
2021/07/29 21:53:14;;;;;;;15.02;7.78;;;24.50;99.90;;;;;;5094336;28;20028;-84
2021/07/29 21:55:39;;;;;;;18.70;7.95;;;24.20;99.90;;;;;;5093920;28;20028;-90
2021/07/29 21:58:05;;;;;;;10.80;8.52;;;23.90;99.90;;;;;;5094005;28;20024;-88
2021/07/29 22:00:31;;;;;;;15.73;10.32;;;23.60;99.90;;;;;;5094031;28;20480;-90
2021/07/29 22:02:57;;;;;;;14.63;8.90;;;23.40;99.90;;;;;;5093814;28;20051;-89
2021/07/29 22:05:22;;;;;;;11.18;8.43;;;23.30;99.90;;;;;;5094555;28;20099;-81
2021/07/29 22:07:48;;;;;;;13.68;9.10;;;23.20;99.90;;;;;;5075901;28;20036;-88
2021/07/29 22:10:14;;;;;;;14.05;9.73;;;23.10;99.90;;;;;;5093514;28;20385;-82
2021/07/29 22:12:40;;;;;;;18.35;10.25;;;22.90;99.90;;;;;;5093743;28;20024;-83
2021/07/29 22:15:07;;;;;;;13.48;10.27;;;22.70;99.90;;;;;;5093434;28;20028;-85
2021/07/29 22:17:33;;;;;;;15.35;11.55;;;22.70;99.90;;;;;;5093313;28;20029;-82
2021/07/29 22:19:59;;;;;;;13.63;11.75;;;22.60;99.90;;;;;;5093638;28;20035;-84
2021/07/29 22:22:24;;;;;;;13.13;11.50;;;22.50;99.90;;;;;;5093541;28;20024;-83
2021/07/29 22:24:51;;;;;;;15.43;11.50;;;22.50;99.90;;;;;;5094411;28;20044;-78
2021/07/29 22:27:17;;;;;;;14.65;12.13;;;22.50;99.90;;;;;;5097500;28;20028;-78
2021/07/29 22:29:42;;;;;;;19.38;11.75;;;22.50;99.90;;;;;;5097465;28;20024;-81
2021/07/29 22:32:08;;;;;;;13.30;11.88;;;22.50;99.90;;;;;;5097342;28;20043;-86
2021/07/29 22:34:34;;;;;;;15.23;11.57;;;22.60;99.90;;;;;;5096658;28;20050;-80
2021/07/29 22:36:59;;;;;;;16.02;10.98;;;22.60;99.90;;;;;;5097263;28;20032;-77
2021/07/29 22:39:25;;;;;;;15.65;11.35;;;22.60;99.90;;;;;;5096684;28;20048;-79
2021/07/29 22:41:51;;;;;;;11.75;10.40;;;22.60;99.90;;;;;;5096881;28;20099;-78
2021/07/29 22:44:17;;;;;;;14.63;10.38;;;22.60;99.90;;;;;;5097558;28;20044;-84
2021/07/29 22:46:42;;;;;;;12.25;9.50;;;22.60;99.90;;;;;;5078716;28;20031;-82
2021/07/29 22:49:08;;;;;;;11.48;10.15;;;22.60;99.90;;;;;;5097106;28;20032;-86
2021/07/29 22:51:34;;;;;;;18.05;12.82;;;22.60;99.90;;;;;;5096742;28;20073;-87
2021/07/29 22:53:59;;;;;;;15.50;12.43;;;22.60;99.90;;;;;;5096877;28;20032;-83
2021/07/29 22:56:27;;;;;;;16.83;12.95;;;22.60;99.90;;;;;;5096951;28;20027;-82
2021/07/29 22:58:52;;;;;;;18.13;11.98;;;22.50;99.90;;;;;;5096639;28;20028;-86
2021/07/29 23:01:18;;;;;;;13.30;10.82;;;22.50;99.90;;;;;;5096530;28;20030;-84
2021/07/29 23:03:44;;;;;;;13.25;11.20;;;22.40;99.90;;;;;;5097085;28;20024;-80
2021/07/29 23:06:09;;;;;;;13.52;10.40;;;22.30;99.90;;;;;;5096660;28;20020;-87
2021/07/29 23:08:35;;;;;;;12.93;10.70;;;22.30;99.90;;;;;;5096700;28;20516;-89
2021/07/29 23:11:01;;;;;;;16.52;10.35;;;22.20;99.90;;;;;;5078481;28;20466;-91
2021/07/29 23:13:26;;;;;;;16.40;11.20;;;22.10;99.90;;;;;;5078324;28;20059;-78
2021/07/29 23:15:52;;;;;;;12.73;10.82;;;22.10;99.90;;;;;;5096679;28;20024;-83
2021/07/29 23:18:18;;;;;;;13.73;9.73;;;22.00;99.90;;;;;;5096130;28;20023;-84
2021/07/29 23:20:43;;;;;;;14.80;9.75;;;22.00;99.90;;;;;;5096227;28;20524;-82
2021/07/29 23:23:28;;;;;;;9.90;8.40;;;22.00;99.90;;;;;;5096481;28;20024;-81
2021/07/29 23:28:38;;;;;;;10.98;7.65;;;22.00;99.90;;;;;;5096432;28;20031;-80
2021/07/29 23:31:04;;;;;;;6.68;6.03;;;22.00;99.90;;;;;;5077890;28;20415;-79
2021/07/29 23:33:30;;;;;;;9.63;6.43;;;22.00;99.90;;;;;;5095944;28;20036;-78
2021/07/29 23:35:57;;;;;;;7.05;6.30;;;22.00;99.90;;;;;;5095761;28;20028;-76
2021/07/29 23:38:23;;;;;;;7.18;6.40;;;21.90;99.90;;;;;;5095790;28;20429;-77
2021/07/29 23:40:49;;;;;;;8.73;6.30;;;21.90;99.90;;;;;;5095867;28;20085;-77
2021/07/29 23:43:18;;;;;;;7.68;6.20;;;21.90;99.90;;;;;;5096276;28;20016;-77
2021/07/29 23:45:44;;;;;;;8.18;5.82;;;22.00;99.90;;;;;;5096248;28;20020;-76
2021/07/29 23:48:11;;;;;;;10.40;5.97;;;21.90;99.90;;;;;;5096041;28;20031;-76
2021/07/29 23:50:38;;;;;;;6.28;5.32;;;22.00;99.90;;;;;;5095460;28;20028;-76
2021/07/29 23:53:05;;;;;;;6.43;5.75;;;22.00;99.90;;;;;;5096172;28;20028;-76
2021/07/29 23:55:31;;;;;;;5.63;4.90;;;22.00;99.90;;;;;;5095631;28;20076;-76
2021/07/29 23:57:57;;;;;;;7.82;5.43;;;22.00;99.90;;;;;;5095490;28;20023;-76
